Time;durP1;ratioP1;P1;durP2;ratioP2;P2;SDS_P1;SDS_P2;PMS_P1;PMS_P2;Temp;Humidity;BMP_temperature;BMP_pressure;BME280_temperature;BME280_humidity;BME280_pressure;Samples;Min_cycle;Max_cycle;Signal;HPM_P1;HPM_P2
2023/08/14 00:01:30;;;;;;;6.00;4.85;;;;;;;;;;5131476;27;20122;-75
2023/08/14 00:03:55;;;;;;;5.45;5.00;;;;;;;;;;5132166;27;20027;-73
2023/08/14 00:06:21;;;;;;;4.88;4.55;;;;;;;;;;5131843;27;20031;-73
2023/08/14 00:08:47;;;;;;;4.85;4.55;;;;;;;;;;5131091;27;20568;-74
2023/08/14 00:11:13;;;;;;;5.40;5.10;;;;;;;;;;5131319;27;20107;-74
2023/08/14 00:13:49;;;;;;;5.22;4.88;;;;;;;;;;5131283;27;20513;-74
2023/08/14 00:16:15;;;;;;;5.15;4.75;;;;;;;;;;5131276;27;20461;-73
2023/08/14 00:18:41;;;;;;;5.40;5.00;;;;;;;;;;5131519;27;20070;-72
2023/08/14 00:21:06;;;;;;;5.32;5.03;;;;;;;;;;5130947;27;20412;-72
2023/08/14 00:23:33;;;;;;;6.07;5.63;;;;;;;;;;5131348;27;20533;-73
2023/08/14 00:25:59;;;;;;;6.00;5.30;;;;;;;;;;5131399;27;20030;-74
2023/08/14 00:28:25;;;;;;;5.60;5.20;;;;;;;;;;5132768;27;20046;-74
2023/08/14 00:30:51;;;;;;;5.60;4.95;;;;;;;;;;5114608;27;20062;-73
2023/08/14 00:33:17;;;;;;;5.93;5.05;;;;;;;;;;5115199;28;20065;-74
2023/08/14 00:35:44;;;;;;;5.85;5.45;;;;;;;;;;5133224;27;20038;-73
2023/08/14 00:38:10;;;;;;;6.47;5.97;;;;;;;;;;5114434;27;20023;-73
2023/08/14 00:40:36;;;;;;;6.53;5.90;;;;;;;;;;5132493;27;20043;-74
2023/08/14 00:43:02;;;;;;;6.68;5.95;;;;;;;;;;5113926;27;20445;-73
2023/08/14 00:45:32;;;;;;;6.20;5.65;;;;;;;;;;5132321;27;20061;-74
2023/08/14 00:47:57;;;;;;;5.43;4.93;;;;;;;;;;5131312;27;20027;-73
2023/08/14 00:50:23;;;;;;;6.65;6.05;;;;;;;;;;5132231;27;20072;-73
2023/08/14 00:52:51;;;;;;;6.32;5.82;;;;;;;;;;5114708;27;20396;-72
2023/08/14 00:55:18;;;;;;;6.03;5.63;;;;;;;;;;5113109;28;20524;-73
2023/08/14 00:57:46;;;;;;;6.45;5.95;;;;;;;;;;5131108;27;20401;-74
2023/08/14 01:00:12;;;;;;;7.03;5.85;;;;;;;;;;5112220;27;20091;-74
2023/08/14 01:02:40;;;;;;;8.95;6.22;;;;;;;;;;5130932;27;20028;-72
2023/08/14 01:05:07;;;;;;;6.45;6.00;;;;;;;;;;5112686;27;20489;-73
2023/08/14 01:07:32;;;;;;;5.32;4.82;;;;;;;;;;5130931;27;20039;-72
2023/08/14 01:09:59;;;;;;;6.82;5.85;;;;;;;;;;5130651;27;20043;-73
2023/08/14 01:12:38;;;;;;;7.78;6.00;;;;;;;;;;5130388;27;20029;-72
2023/08/14 01:15:06;;;;;;;7.10;6.60;;;;;;;;;;5112213;28;20473;-71
2023/08/14 01:17:32;;;;;;;7.65;6.95;;;;;;;;;;5112375;27;20408;-73
2023/08/14 01:19:59;;;;;;;6.10;5.50;;;;;;;;;;5114213;27;20039;-73
2023/08/14 01:22:41;;;;;;;6.70;6.18;;;;;;;;;;5082545;27;20122;-72
2023/08/14 01:25:26;;;;;;;6.25;5.80;;;;;;;;;;5116053;27;20122;-72
2023/08/14 01:27:52;;;;;;;7.25;6.65;;;;;;;;;;5134550;27;20586;-72
2023/08/14 01:30:20;;;;;;;5.93;5.53;;;;;;;;;;5098980;27;20043;-71
2023/08/14 01:32:46;;;;;;;6.38;5.65;;;;;;;;;;5134394;27;20331;-72
2023/08/14 01:35:13;;;;;;;7.10;6.40;;;;;;;;;;5115932;27;20051;-72
2023/08/14 01:37:45;;;;;;;6.43;5.93;;;;;;;;;;5134192;27;20038;-72
2023/08/14 01:40:23;;;;;;;7.03;6.63;;;;;;;;;;5134157;27;20035;-72
2023/08/14 01:42:51;;;;;;;7.18;6.68;;;;;;;;;;5134222;27;20030;-72
2023/08/14 01:45:17;;;;;;;6.53;5.93;;;;;;;;;;5115842;27;20060;-73
2023/08/14 01:47:43;;;;;;;10.98;6.45;;;;;;;;;;5134019;27;20042;-72
2023/08/14 01:50:09;;;;;;;6.90;6.15;;;;;;;;;;5115427;27;20046;-73
2023/08/14 01:52:35;;;;;;;5.95;5.55;;;;;;;;;;5115711;27;20084;-71
2023/08/14 01:55:02;;;;;;;6.88;6.28;;;;;;;;;;5098497;27;20027;-72
2023/08/14 01:57:31;;;;;;;7.38;6.38;;;;;;;;;;5099106;27;20031;-72
2023/08/14 01:59:57;;;;;;;7.30;6.70;;;;;;;;;;5098499;27;20031;-73
2023/08/14 02:02:23;;;;;;;8.15;7.35;;;;;;;;;;5133563;27;20494;-72
2023/08/14 02:04:48;;;;;;;6.35;5.85;;;;;;;;;;5133863;27;20056;-73
2023/08/14 02:07:16;;;;;;;6.93;6.20;;;;;;;;;;5115017;27;20035;-71
2023/08/14 02:09:42;;;;;;;5.75;5.38;;;;;;;;;;5133586;27;20789;-71
2023/08/14 02:12:08;;;;;;;5.18;4.88;;;;;;;;;;5133382;27;20442;-70
2023/08/14 02:14:34;;;;;;;5.78;5.28;;;;;;;;;;5098056;27;20552;-71
2023/08/14 02:17:00;;;;;;;5.93;5.45;;;;;;;;;;5115073;27;20042;-71
2023/08/14 02:19:27;;;;;;;5.30;4.90;;;;;;;;;;5115057;27;20039;-71
2023/08/14 02:21:53;;;;;;;5.18;4.68;;;;;;;;;;5133454;27;20039;-72
2023/08/14 02:24:19;;;;;;;5.50;5.10;;;;;;;;;;5133249;27;20516;-71
2023/08/14 02:26:46;;;;;;;6.40;5.80;;;;;;;;;;5133389;27;20031;-72
2023/08/14 02:29:12;;;;;;;5.13;4.82;;;;;;;;;;5114785;27;20034;-72
2023/08/14 02:31:39;;;;;;;12.00;5.35;;;;;;;;;;5132549;27;20417;-72
2023/08/14 02:34:06;;;;;;;4.82;4.53;;;;;;;;;;5114757;27;20035;-72
2023/08/14 02:36:32;;;;;;;5.70;5.20;;;;;;;;;;5097861;27;20068;-70
2023/08/14 02:38:58;;;;;;;5.20;4.80;;;;;;;;;;5114637;27;20058;-71
2023/08/14 02:41:24;;;;;;;5.00;4.70;;;;;;;;;;5114625;27;20067;-71
2023/08/14 02:43:51;;;;;;;5.30;4.80;;;;;;;;;;5133047;27;20059;-71
2023/08/14 02:46:17;;;;;;;5.47;5.07;;;;;;;;;;5132477;27;20060;-71
2023/08/14 02:48:45;;;;;;;5.15;4.75;;;;;;;;;;5132778;27;20035;-72
2023/08/14 02:51:11;;;;;;;5.82;5.07;;;;;;;;;;5097001;27;20517;-72
2023/08/14 02:53:37;;;;;;;5.40;4.90;;;;;;;;;;5132949;27;20423;-72
2023/08/14 02:56:03;;;;;;;8.60;5.38;;;;;;;;;;5132770;27;20059;-70
2023/08/14 02:58:30;;;;;;;5.40;4.90;;;;;;;;;;5115263;27;20077;-72
2023/08/14 03:00:56;;;;;;;5.28;4.90;;;;;;;;;;5133486;27;20031;-71
2023/08/14 03:03:22;;;;;;;5.78;5.28;;;;;;;;;;5136894;27;20039;-71
2023/08/14 03:05:48;;;;;;;4.95;4.57;;;;;;;;;;5140698;27;20031;-72
2023/08/14 03:08:14;;;;;;;4.60;4.30;;;;;;;;;;5138036;27;20047;-72
2023/08/14 03:10:40;;;;;;;4.68;4.28;;;;;;;;;;5114277;27;20047;-71
2023/08/14 03:13:07;;;;;;;4.88;4.50;;;;;;;;;;5113247;27;20047;-71
2023/08/14 03:15:33;;;;;;;4.20;3.90;;;;;;;;;;5114130;27;20063;-72
2023/08/14 03:17:59;;;;;;;4.43;4.20;;;;;;;;;;5132365;27;20061;-71
2023/08/14 03:20:25;;;;;;;4.30;3.90;;;;;;;;;;5113912;27;20505;-73
2023/08/14 03:22:51;;;;;;;4.35;4.05;;;;;;;;;;5113926;27;20084;-73
2023/08/14 03:25:17;;;;;;;4.20;3.90;;;;;;;;;;5132044;27;20435;-72
2023/08/14 03:27:45;;;;;;;3.75;3.55;;;;;;;;;;5113674;27;20023;-71
2023/08/14 03:30:12;;;;;;;3.63;3.33;;;;;;;;;;5131893;27;20394;-72
2023/08/14 03:32:39;;;;;;;4.00;3.70;;;;;;;;;;5113783;27;20316;-72
2023/08/14 03:35:05;;;;;;;4.13;3.83;;;;;;;;;;5131792;27;20472;-71
2023/08/14 03:37:31;;;;;;;4.43;4.05;;;;;;;;;;5113575;27;20061;-73
2023/08/14 03:39:57;;;;;;;4.07;3.75;;;;;;;;;;5096895;27;20039;-73
2023/08/14 03:42:23;;;;;;;4.00;3.70;;;;;;;;;;5133034;27;20035;-72
2023/08/14 03:44:50;;;;;;;4.97;4.00;;;;;;;;;;5113903;27;20082;-72
2023/08/14 03:47:16;;;;;;;4.50;4.20;;;;;;;;;;5113410;27;20028;-73
2023/08/14 03:49:42;;;;;;;4.22;4.03;;;;;;;;;;5113435;27;20054;-72
2023/08/14 03:52:08;;;;;;;4.10;3.90;;;;;;;;;;5131201;27;20041;-73
2023/08/14 03:54:34;;;;;;;7.00;3.63;;;;;;;;;;5113234;27;20114;-71
2023/08/14 03:57:00;;;;;;;3.50;3.30;;;;;;;;;;5113011;27;20561;-72
2023/08/14 03:59:26;;;;;;;3.83;3.63;;;;;;;;;;5095900;27;20047;-73
2023/08/14 04:01:52;;;;;;;12.40;5.45;;;;;;;;;;5113151;27;20031;-72
2023/08/14 04:04:18;;;;;;;3.88;3.67;;;;;;;;;;5131298;27;20046;-72
2023/08/14 04:06:47;;;;;;;3.92;3.67;;;;;;;;;;5095991;27;20031;-72
2023/08/14 04:09:13;;;;;;;3.95;3.65;;;;;;;;;;5113000;27;20039;-73
2023/08/14 04:11:39;;;;;;;3.80;3.50;;;;;;;;;;5131232;27;20115;-72
2023/08/14 04:14:06;;;;;;;3.95;3.75;;;;;;;;;;5112799;27;20055;-71
2023/08/14 04:16:41;;;;;;;4.18;3.88;;;;;;;;;;5112933;27;20035;-72
2023/08/14 04:19:08;;;;;;;4.03;3.63;;;;;;;;;;5131300;27;20039;-73
2023/08/14 04:21:35;;;;;;;4.15;3.85;;;;;;;;;;5113154;27;20374;-73
2023/08/14 04:24:01;;;;;;;4.82;4.40;;;;;;;;;;5112883;27;20050;-74
2023/08/14 04:26:27;;;;;;;4.43;4.13;;;;;;;;;;5130742;27;20046;-72
2023/08/14 04:28:54;;;;;;;4.35;3.88;;;;;;;;;;5113041;27;20416;-74
2023/08/14 04:31:20;;;;;;;5.72;5.22;;;;;;;;;;5112625;28;20047;-71
2023/08/14 04:33:46;;;;;;;3.63;3.40;;;;;;;;;;5112898;27;20562;-72
2023/08/14 04:36:12;;;;;;;5.88;3.60;;;;;;;;;;5112450;28;20073;-71
2023/08/14 04:38:38;;;;;;;3.97;3.70;;;;;;;;;;5112865;28;20478;-72
2023/08/14 04:41:04;;;;;;;5.85;3.67;;;;;;;;;;5112748;27;20078;-72
2023/08/14 04:43:31;;;;;;;4.25;4.03;;;;;;;;;;5112803;27;20654;-72
2023/08/14 04:45:58;;;;;;;4.10;3.80;;;;;;;;;;5131607;27;20038;-72
2023/08/14 04:48:24;;;;;;;6.47;4.60;;;;;;;;;;5112737;27;20039;-75
2023/08/14 04:50:50;;;;;;;5.07;4.68;;;;;;;;;;5131454;27;20043;-73
2023/08/14 04:53:16;;;;;;;4.78;4.38;;;;;;;;;;5131327;27;20084;-72
2023/08/14 04:55:42;;;;;;;8.25;4.78;;;;;;;;;;5116295;27;20045;-73
2023/08/14 04:58:09;;;;;;;5.65;5.25;;;;;;;;;;5117249;27;20027;-72
2023/08/14 05:00:37;;;;;;;5.60;5.20;;;;;;;;;;5100406;27;20122;-73
2023/08/14 05:03:05;;;;;;;5.57;5.18;;;;;;;;;;5117376;27;20023;-76
2023/08/14 05:05:33;;;;;;;5.28;4.90;;;;;;;;;;5117104;27;20046;-73
2023/08/14 05:07:59;;;;;;;5.35;5.05;;;;;;;;;;5135461;27;20510;-72
2023/08/14 05:10:24;;;;;;;5.40;5.00;;;;;;;;;;5134909;27;20188;-73
2023/08/14 05:12:50;;;;;;;5.95;5.03;;;;;;;;;;5116603;27;20047;-73
2023/08/14 05:15:17;;;;;;;5.32;4.90;;;;;;;;;;5134857;27;20104;-74
2023/08/14 05:17:44;;;;;;;5.40;4.75;;;;;;;;;;5099633;27;20035;-75
2023/08/14 05:20:10;;;;;;;5.03;4.65;;;;;;;;;;5116290;27;20066;-74
2023/08/14 05:22:36;;;;;;;4.95;4.65;;;;;;;;;;5116429;27;20534;-73
2023/08/14 05:25:02;;;;;;;6.85;5.40;;;;;;;;;;5099679;27;20039;-75
2023/08/14 05:27:31;;;;;;;5.25;4.95;;;;;;;;;;5134374;27;20031;-72
2023/08/14 05:29:57;;;;;;;5.32;4.97;;;;;;;;;;5116142;27;20417;-72
2023/08/14 05:32:23;;;;;;;5.10;4.70;;;;;;;;;;5134074;27;20031;-73
2023/08/14 05:34:49;;;;;;;8.98;5.45;;;;;;;;;;5134518;27;20043;-72
2023/08/14 05:37:15;;;;;;;4.70;4.43;;;;;;;;;;5134315;27;20114;-72
2023/08/14 05:39:41;;;;;;;4.00;3.70;;;;;;;;;;5134850;27;20122;-74
2023/08/14 05:42:08;;;;;;;6.63;5.45;;;;;;;;;;5134410;27;20033;-72
2023/08/14 05:44:34;;;;;;;6.03;5.53;;;;;;;;;;5134495;27;20042;-73
2023/08/14 05:47:00;;;;;;;7.40;5.70;;;;;;;;;;5134560;27;20532;-72
2023/08/14 05:49:27;;;;;;;6.05;5.40;;;;;;;;;;5133731;27;20039;-72
2023/08/14 05:51:53;;;;;;;5.55;5.03;;;;;;;;;;5115730;27;20119;-73
2023/08/14 05:54:19;;;;;;;5.70;5.20;;;;;;;;;;5133880;27;20031;-72
2023/08/14 05:56:46;;;;;;;5.80;5.35;;;;;;;;;;5133639;27;20035;-72
2023/08/14 05:59:12;;;;;;;5.85;5.22;;;;;;;;;;5133665;27;20027;-73
2023/08/14 06:01:39;;;;;;;5.35;4.93;;;;;;;;;;5115270;27;20104;-73
2023/08/14 06:04:05;;;;;;;5.88;5.47;;;;;;;;;;5115625;27;20061;-74
2023/08/14 06:06:31;;;;;;;4.85;4.45;;;;;;;;;;5132465;27;20046;-71
2023/08/14 06:08:58;;;;;;;5.47;4.97;;;;;;;;;;5134228;27;20070;-72
2023/08/14 06:11:24;;;;;;;5.38;5.07;;;;;;;;;;5115175;27;20071;-71
2023/08/14 06:13:50;;;;;;;6.00;5.50;;;;;;;;;;5134113;27;20561;-72
2023/08/14 06:16:17;;;;;;;5.90;5.40;;;;;;;;;;5121954;27;20505;-73
2023/08/14 06:18:42;;;;;;;6.05;5.65;;;;;;;;;;5142279;27;20035;-73
2023/08/14 06:21:08;;;;;;;7.38;5.88;;;;;;;;;;5136782;27;20054;-73
2023/08/14 06:23:35;;;;;;;7.03;5.07;;;;;;;;;;5114666;27;20409;-73
2023/08/14 06:26:01;;;;;;;6.05;5.57;;;;;;;;;;5133456;27;20408;-73
2023/08/14 06:28:27;;;;;;;5.53;5.03;;;;;;;;;;5133010;27;20041;-72
2023/08/14 06:30:53;;;;;;;5.20;4.75;;;;;;;;;;5132072;27;20043;-73
2023/08/14 06:33:19;;;;;;;5.40;5.00;;;;;;;;;;5134388;27;20035;-72
2023/08/14 06:35:45;;;;;;;4.88;4.25;;;;;;;;;;5130071;27;20027;-73
2023/08/14 06:38:10;;;;;;;4.70;4.40;;;;;;;;;;5133085;27;20088;-73
2023/08/14 06:40:37;;;;;;;5.40;5.00;;;;;;;;;;5130945;27;20636;-72
2023/08/14 06:43:03;;;;;;;6.40;4.90;;;;;;;;;;5127487;27;20069;-73
2023/08/14 06:45:29;;;;;;;6.10;4.90;;;;;;;;;;5129259;27;20086;-71
2023/08/14 06:47:55;;;;;;;5.85;4.90;;;;;;;;;;5132858;27;20631;-71
2023/08/14 06:50:21;;;;;;;5.32;4.63;;;;;;;;;;5125196;27;20050;-72
2023/08/14 06:52:47;;;;;;;4.57;4.38;;;;;;;;;;5129632;27;20481;-75
2023/08/14 06:55:13;;;;;;;3.60;3.40;;;;;;;;;;5111735;27;20609;-71
2023/08/14 06:57:39;;;;;;;5.15;4.75;;;;;;;;;;5130699;27;20039;-71
2023/08/14 07:00:11;;;;;;;5.22;4.72;;;;;;;;;;5113516;27;20443;-72
2023/08/14 07:02:38;;;;;;;3.67;3.45;;;;;;;;;;5131748;27;20391;-72
2023/08/14 07:05:04;;;;;;;5.78;4.63;;;;;;;;;;5131606;27;20039;-72
2023/08/14 07:07:30;;;;;;;5.10;4.80;;;;;;;;;;5095326;27;20031;-72
2023/08/14 07:09:56;;;;;;;5.57;5.07;;;;;;;;;;5112102;27;20049;-72
2023/08/14 07:12:22;;;;;;;5.47;4.97;;;;;;;;;;5132316;27;20027;-72
2023/08/14 07:14:48;;;;;;;4.70;4.40;;;;;;;;;;5113987;27;20071;-71
2023/08/14 07:17:14;;;;;;;5.03;3.80;;;;;;;;;;5131881;27;20035;-71
2023/08/14 07:19:40;;;;;;;5.68;5.13;;;;;;;;;;5132323;27;20030;-72
2023/08/14 07:22:06;;;;;;;6.35;4.93;;;;;;;;;;5131983;27;20034;-72
2023/08/14 07:24:32;;;;;;;9.45;5.63;;;;;;;;;;5131930;27;20039;-72
2023/08/14 07:26:59;;;;;;;11.63;6.00;;;;;;;;;;5131951;27;20031;-73
2023/08/14 07:29:25;;;;;;;5.82;5.15;;;;;;;;;;5113627;27;20031;-72
2023/08/14 07:31:51;;;;;;;5.47;4.47;;;;;;;;;;5131870;27;20035;-72
2023/08/14 07:34:17;;;;;;;4.90;4.50;;;;;;;;;;5131744;27;20046;-71
2023/08/14 07:36:42;;;;;;;6.53;5.88;;;;;;;;;;5131805;27;20031;-70
2023/08/14 07:39:09;;;;;;;5.97;5.38;;;;;;;;;;5131831;27;20498;-72
2023/08/14 07:41:35;;;;;;;5.05;4.45;;;;;;;;;;5131530;27;20627;-72
2023/08/14 07:44:00;;;;;;;9.20;4.80;;;;;;;;;;5131744;27;20031;-71
2023/08/14 07:46:27;;;;;;;6.18;5.65;;;;;;;;;;5131571;27;20061;-72
2023/08/14 07:48:53;;;;;;;10.13;4.55;;;;;;;;;;5131766;27;20034;-73
2023/08/14 07:51:19;;;;;;;3.60;3.42;;;;;;;;;;5131550;27;20047;-73
2023/08/14 07:53:45;;;;;;;5.28;4.78;;;;;;;;;;5131651;27;20038;-72
2023/08/14 07:56:12;;;;;;;6.45;5.95;;;;;;;;;;5131669;27;20501;-73
2023/08/14 07:58:41;;;;;;;5.90;5.40;;;;;;;;;;5113144;27;20561;-72
2023/08/14 08:01:08;;;;;;;6.07;5.10;;;;;;;;;;5113363;27;20076;-71
2023/08/14 08:03:34;;;;;;;4.10;3.80;;;;;;;;;;5131240;27;20035;-72
2023/08/14 08:06:01;;;;;;;6.45;5.93;;;;;;;;;;5131364;27;20039;-73
2023/08/14 08:08:27;;;;;;;6.30;5.80;;;;;;;;;;5131013;27;20031;-71
2023/08/14 08:10:53;;;;;;;7.32;5.40;;;;;;;;;;5131309;27;20043;-71
2023/08/14 08:13:19;;;;;;;5.70;5.18;;;;;;;;;;5130982;27;20188;-72
2023/08/14 08:15:45;;;;;;;6.75;5.50;;;;;;;;;;5131365;27;20046;-72
2023/08/14 08:18:11;;;;;;;6.50;5.60;;;;;;;;;;5131356;27;20058;-70
2023/08/14 08:20:37;;;;;;;5.90;5.45;;;;;;;;;;5131106;27;20042;-72
2023/08/14 08:23:04;;;;;;;7.43;5.20;;;;;;;;;;5131259;27;20188;-72
2023/08/14 08:25:30;;;;;;;5.80;5.28;;;;;;;;;;5112457;27;20405;-73
2023/08/14 08:27:56;;;;;;;6.32;5.65;;;;;;;;;;5113234;27;20050;-73
2023/08/14 08:30:22;;;;;;;5.75;5.32;;;;;;;;;;5130893;27;20501;-74
2023/08/14 08:32:48;;;;;;;5.18;4.78;;;;;;;;;;5131288;27;20035;-73
2023/08/14 08:35:14;;;;;;;5.68;5.28;;;;;;;;;;5131224;27;20130;-72
2023/08/14 08:37:41;;;;;;;5.10;4.80;;;;;;;;;;5130854;27;20118;-72
2023/08/14 08:40:08;;;;;;;5.18;4.78;;;;;;;;;;5131197;27;20035;-73
2023/08/14 08:42:34;;;;;;;5.68;5.28;;;;;;;;;;5130756;27;20213;-73
2023/08/14 08:45:01;;;;;;;7.00;5.60;;;;;;;;;;5112883;27;20525;-73
2023/08/14 08:47:30;;;;;;;5.57;4.93;;;;;;;;;;5130646;27;20098;-72
2023/08/14 08:49:56;;;;;;;6.00;4.55;;;;;;;;;;5130812;27;20129;-72
2023/08/14 08:52:22;;;;;;;5.63;5.15;;;;;;;;;;5130900;27;20060;-73
2023/08/14 08:54:48;;;;;;;5.28;4.97;;;;;;;;;;5130828;27;20031;-72
2023/08/14 08:57:14;;;;;;;5.63;5.15;;;;;;;;;;5130859;27;20095;-73
2023/08/14 08:59:40;;;;;;;6.80;5.00;;;;;;;;;;5112269;27;20027;-73
2023/08/14 09:02:07;;;;;;;6.03;5.35;;;;;;;;;;5130887;27;20073;-73
2023/08/14 09:04:33;;;;;;;6.00;5.50;;;;;;;;;;5112440;28;20579;-72
2023/08/14 09:06:59;;;;;;;5.32;4.93;;;;;;;;;;5130826;27;20130;-73
2023/08/14 09:09:25;;;;;;;5.63;5.13;;;;;;;;;;5130493;27;20027;-73
2023/08/14 09:11:51;;;;;;;7.07;6.07;;;;;;;;;;5112835;28;20043;-73
2023/08/14 09:14:17;;;;;;;5.75;5.25;;;;;;;;;;5130636;27;20123;-72
2023/08/14 09:16:44;;;;;;;7.57;5.38;;;;;;;;;;5130612;27;20080;-72
2023/08/14 09:19:11;;;;;;;5.43;4.60;;;;;;;;;;5112698;28;20075;-73
2023/08/14 09:21:37;;;;;;;5.28;4.90;;;;;;;;;;5112717;27;20031;-73
2023/08/14 09:24:03;;;;;;;5.30;4.80;;;;;;;;;;5113324;28;20135;-73
2023/08/14 09:26:29;;;;;;;5.10;4.80;;;;;;;;;;5133833;27;20446;-72
2023/08/14 09:28:55;;;;;;;5.50;4.43;;;;;;;;;;5135546;27;20034;-73
2023/08/14 09:31:21;;;;;;;5.43;5.03;;;;;;;;;;5133575;27;20035;-72
2023/08/14 09:33:47;;;;;;;4.95;4.55;;;;;;;;;;5130681;27;20076;-72
2023/08/14 09:36:13;;;;;;;4.60;4.22;;;;;;;;;;5130800;27;20043;-74
2023/08/14 09:38:39;;;;;;;5.15;4.65;;;;;;;;;;5130469;27;20497;-72
2023/08/14 09:41:05;;;;;;;5.53;5.03;;;;;;;;;;5132622;27;20066;-73
2023/08/14 09:43:31;;;;;;;3.78;3.58;;;;;;;;;;5134198;27;20513;-73
2023/08/14 09:45:59;;;;;;;9.10;5.03;;;;;;;;;;5116758;27;20091;-74
2023/08/14 09:48:39;;;;;;;4.93;4.50;;;;;;;;;;5133717;27;20035;-73
2023/08/14 09:51:07;;;;;;;3.95;3.65;;;;;;;;;;5134164;27;20053;-70
2023/08/14 09:53:39;;;;;;;5.50;4.57;;;;;;;;;;5115393;27;20031;-73
2023/08/14 09:56:05;;;;;;;4.13;3.75;;;;;;;;;;5115549;27;20039;-72
2023/08/14 09:58:30;;;;;;;9.40;5.57;;;;;;;;;;5133522;27;20027;-72
2023/08/14 10:00:56;;;;;;;4.20;3.75;;;;;;;;;;5115358;27;20413;-72
2023/08/14 10:03:22;;;;;;;5.97;5.47;;;;;;;;;;5115667;27;20041;-72
2023/08/14 10:05:48;;;;;;;5.32;4.88;;;;;;;;;;5115232;27;20046;-73
2023/08/14 10:08:14;;;;;;;4.25;3.95;;;;;;;;;;5133575;27;20028;-72
2023/08/14 10:10:40;;;;;;;4.50;4.10;;;;;;;;;;5133297;27;20506;-72
2023/08/14 10:13:07;;;;;;;3.55;3.35;;;;;;;;;;5133766;27;20049;-73
2023/08/14 10:15:54;;;;;;;4.40;4.20;;;;;;;;;;5133398;27;20122;-72
2023/08/14 10:18:21;;;;;;;5.30;4.80;;;;;;;;;;5133315;27;20539;-73
2023/08/14 10:20:47;;;;;;;6.13;5.20;;;;;;;;;;5097912;27;20035;-72
2023/08/14 10:23:13;;;;;;;5.88;4.88;;;;;;;;;;5133240;27;20027;-72
2023/08/14 10:25:39;;;;;;;5.90;4.90;;;;;;;;;;5133111;27;20121;-72
2023/08/14 10:28:07;;;;;;;6.22;5.80;;;;;;;;;;5115086;27;20374;-72
2023/08/14 10:30:33;;;;;;;5.75;4.72;;;;;;;;;;5133155;27;20046;-73
2023/08/14 10:32:59;;;;;;;5.45;4.95;;;;;;;;;;5133304;27;20035;-72
2023/08/14 10:35:25;;;;;;;4.97;4.18;;;;;;;;;;5114976;27;20512;-73
2023/08/14 10:37:52;;;;;;;9.82;4.47;;;;;;;;;;5114696;27;20084;-73
2023/08/14 10:40:18;;;;;;;5.28;4.88;;;;;;;;;;5133277;27;20222;-73
2023/08/14 10:42:56;;;;;;;5.40;4.90;;;;;;;;;;5132673;27;20088;-73
2023/08/14 10:45:22;;;;;;;5.25;4.75;;;;;;;;;;5133144;27;20031;-73
2023/08/14 10:47:49;;;;;;;4.50;4.10;;;;;;;;;;5132537;27;20041;-72
2023/08/14 10:50:17;;;;;;;3.97;3.63;;;;;;;;;;5132969;27;20031;-73
2023/08/14 10:52:47;;;;;;;5.20;4.72;;;;;;;;;;5132409;27;20043;-74
2023/08/14 10:55:15;;;;;;;6.05;4.82;;;;;;;;;;5146906;27;20039;-74
2023/08/14 10:57:40;;;;;;;3.67;3.47;;;;;;;;;;5116316;27;20054;-72
2023/08/14 11:00:18;;;;;;;4.80;4.40;;;;;;;;;;5132734;27;20501;-72
2023/08/14 11:02:48;;;;;;;4.30;4.00;;;;;;;;;;5132171;27;20032;-72
2023/08/14 11:05:16;;;;;;;4.65;4.28;;;;;;;;;;5132487;27;20035;-73
2023/08/14 11:07:44;;;;;;;4.88;4.20;;;;;;;;;;5132092;27;20071;-70
2023/08/14 11:10:13;;;;;;;4.43;4.10;;;;;;;;;;5114012;27;20586;-73
2023/08/14 11:12:39;;;;;;;4.25;4.03;;;;;;;;;;5131922;27;20042;-74
2023/08/14 11:15:05;;;;;;;5.20;4.80;;;;;;;;;;5132477;27;20114;-72
2023/08/14 11:17:31;;;;;;;4.10;3.78;;;;;;;;;;5132388;27;20041;-73
2023/08/14 11:19:57;;;;;;;4.10;3.80;;;;;;;;;;5132955;27;20039;-73
2023/08/14 11:22:23;;;;;;;5.03;4.72;;;;;;;;;;5132379;27;20028;-73
2023/08/14 11:24:49;;;;;;;5.80;5.35;;;;;;;;;;5131927;27;20042;-72
2023/08/14 11:27:15;;;;;;;5.00;4.70;;;;;;;;;;5131987;27;20521;-73
2023/08/14 11:29:41;;;;;;;4.10;3.80;;;;;;;;;;5131697;27;20039;-72
2023/08/14 11:32:07;;;;;;;7.53;5.10;;;;;;;;;;5132149;27;20121;-72
2023/08/14 11:34:34;;;;;;;6.53;5.88;;;;;;;;;;5131774;27;20057;-73
2023/08/14 11:37:01;;;;;;;7.28;5.88;;;;;;;;;;5096664;27;20450;-73
2023/08/14 11:39:27;;;;;;;6.82;6.32;;;;;;;;;;5131979;27;20039;-72
2023/08/14 11:41:53;;;;;;;7.07;6.57;;;;;;;;;;5131702;27;20642;-73
2023/08/14 11:44:19;;;;;;;5.97;5.55;;;;;;;;;;5096579;27;20035;-73
2023/08/14 11:46:45;;;;;;;5.63;5.22;;;;;;;;;;5113157;27;20035;-73
2023/08/14 11:49:12;;;;;;;6.03;5.53;;;;;;;;;;5131707;27;20035;-73
2023/08/14 11:51:40;;;;;;;6.85;6.25;;;;;;;;;;5112911;27;20134;-72
2023/08/14 11:54:06;;;;;;;6.43;5.93;;;;;;;;;;5131370;27;20034;-74
2023/08/14 11:56:32;;;;;;;9.25;6.40;;;;;;;;;;5131353;27;20027;-73
2023/08/14 11:58:58;;;;;;;6.72;6.13;;;;;;;;;;5113310;27;20031;-72
2023/08/14 12:01:25;;;;;;;6.07;5.47;;;;;;;;;;5131697;27;20099;-72
2023/08/14 12:03:51;;;;;;;3.70;3.50;;;;;;;;;;5130381;27;20413;-72
2023/08/14 12:06:17;;;;;;;7.28;6.68;;;;;;;;;;5131525;27;20035;-73
2023/08/14 12:08:43;;;;;;;7.78;6.75;;;;;;;;;;5131046;27;20046;-72
2023/08/14 12:11:08;;;;;;;6.57;6.07;;;;;;;;;;5131427;27;20043;-73
2023/08/14 12:13:34;;;;;;;6.50;6.00;;;;;;;;;;5112622;27;20138;-73
2023/08/14 12:16:06;;;;;;;7.03;6.32;;;;;;;;;;5132999;27;20075;-72
2023/08/14 12:18:33;;;;;;;7.97;5.38;;;;;;;;;;5132906;27;20031;-73
2023/08/14 12:20:59;;;;;;;7.20;6.60;;;;;;;;;;5131758;27;20035;-73
2023/08/14 12:23:25;;;;;;;6.38;5.78;;;;;;;;;;5131740;27;20027;-72
2023/08/14 12:25:52;;;;;;;6.10;5.70;;;;;;;;;;5131811;27;20039;-73
2023/08/14 12:28:18;;;;;;;10.18;6.55;;;;;;;;;;5131921;27;20035;-74
2023/08/14 12:30:45;;;;;;;5.97;5.47;;;;;;;;;;5113452;27;20058;-73
2023/08/14 12:33:13;;;;;;;7.13;6.55;;;;;;;;;;5132114;27;20058;-71
2023/08/14 12:35:39;;;;;;;7.13;6.43;;;;;;;;;;5133178;27;20035;-71
2023/08/14 12:38:05;;;;;;;6.85;6.25;;;;;;;;;;5118785;28;20042;-72
2023/08/14 12:40:31;;;;;;;7.05;6.45;;;;;;;;;;5136390;27;20038;-73
2023/08/14 12:42:57;;;;;;;5.65;5.32;;;;;;;;;;5130704;27;20028;-73
2023/08/14 12:45:23;;;;;;;4.53;4.22;;;;;;;;;;5112813;28;20137;-73
2023/08/14 12:47:49;;;;;;;5.85;5.35;;;;;;;;;;5112424;27;20164;-74
2023/08/14 12:50:15;;;;;;;13.63;6.85;;;;;;;;;;5112862;27;20042;-73
2023/08/14 12:52:41;;;;;;;7.20;6.50;;;;;;;;;;5130899;27;20570;-73
2023/08/14 12:55:07;;;;;;;12.00;6.78;;;;;;;;;;5131019;27;20066;-72
2023/08/14 12:57:33;;;;;;;7.13;6.63;;;;;;;;;;5130977;27;20031;-73
2023/08/14 12:59:59;;;;;;;7.28;6.57;;;;;;;;;;5130612;27;20039;-74
2023/08/14 13:02:25;;;;;;;7.68;6.38;;;;;;;;;;5130961;27;20023;-73
2023/08/14 13:04:52;;;;;;;6.63;6.13;;;;;;;;;;5130660;27;20062;-72
2023/08/14 13:07:18;;;;;;;6.60;6.07;;;;;;;;;;5130895;27;20489;-73
2023/08/14 13:09:44;;;;;;;7.43;6.82;;;;;;;;;;5130197;27;20053;-71
2023/08/14 13:12:10;;;;;;;9.25;6.38;;;;;;;;;;5130780;27;20050;-74
2023/08/14 13:14:36;;;;;;;7.45;6.75;;;;;;;;;;5129998;27;20146;-73
2023/08/14 13:17:02;;;;;;;8.32;7.20;;;;;;;;;;5134366;27;20039;-73
2023/08/14 13:19:28;;;;;;;7.68;6.90;;;;;;;;;;5134593;27;20043;-73
2023/08/14 13:21:54;;;;;;;8.50;7.00;;;;;;;;;;5115744;27;20416;-74
2023/08/14 13:24:20;;;;;;;6.90;5.63;;;;;;;;;;5134512;27;20080;-73
2023/08/14 13:26:46;;;;;;;7.75;6.90;;;;;;;;;;5134227;27;20072;-71
2023/08/14 13:29:12;;;;;;;6.70;6.15;;;;;;;;;;5134554;27;20027;-71
2023/08/14 13:31:38;;;;;;;7.40;5.70;;;;;;;;;;5134114;27;20057;-73
2023/08/14 13:34:04;;;;;;;10.48;6.32;;;;;;;;;;5134409;27;20043;-73
2023/08/14 13:36:30;;;;;;;6.55;5.90;;;;;;;;;;5116065;27;20427;-73
2023/08/14 13:38:56;;;;;;;7.32;6.00;;;;;;;;;;5133968;27;20110;-73
2023/08/14 13:41:22;;;;;;;6.88;6.38;;;;;;;;;;5134359;27;20034;-73
2023/08/14 13:43:48;;;;;;;7.00;6.40;;;;;;;;;;5115450;27;20039;-73
2023/08/14 13:46:14;;;;;;;7.28;6.30;;;;;;;;;;5134361;27;20039;-73
2023/08/14 13:48:40;;;;;;;6.70;6.20;;;;;;;;;;5115434;27;20019;-74
2023/08/14 13:51:07;;;;;;;6.88;6.10;;;;;;;;;;5134079;27;20468;-73
2023/08/14 13:53:33;;;;;;;6.47;5.90;;;;;;;;;;5134178;27;20043;-72
2023/08/14 13:55:59;;;;;;;10.98;6.53;;;;;;;;;;5133679;27;20058;-73
2023/08/14 13:58:25;;;;;;;7.63;6.30;;;;;;;;;;5115703;27;20035;-72
2023/08/14 14:00:51;;;;;;;6.65;6.05;;;;;;;;;;5133911;27;20494;-73
2023/08/14 14:03:17;;;;;;;6.05;5.55;;;;;;;;;;5133968;27;20139;-72
2023/08/14 14:05:43;;;;;;;6.60;6.07;;;;;;;;;;5133566;27;20116;-73
2023/08/14 14:08:09;;;;;;;10.35;6.10;;;;;;;;;;5133709;27;20126;-73
2023/08/14 14:10:35;;;;;;;7.30;6.10;;;;;;;;;;5133909;27;20118;-72
2023/08/14 14:13:01;;;;;;;6.72;6.03;;;;;;;;;;5115082;27;20043;-71
2023/08/14 14:15:27;;;;;;;6.45;5.95;;;;;;;;;;5115784;27;20062;-72
2023/08/14 14:17:53;;;;;;;8.77;6.28;;;;;;;;;;5133513;27;20054;-73
2023/08/14 14:20:20;;;;;;;6.57;5.97;;;;;;;;;;5134020;27;20081;-72
2023/08/14 14:22:46;;;;;;;6.03;5.50;;;;;;;;;;5133369;27;20068;-72
2023/08/14 14:25:12;;;;;;;8.27;5.40;;;;;;;;;;5133373;27;20039;-72
2023/08/14 14:27:38;;;;;;;6.25;5.13;;;;;;;;;;5132557;27;20091;-72
2023/08/14 14:30:05;;;;;;;8.32;5.38;;;;;;;;;;5132962;27;20044;-73
2023/08/14 14:32:31;;;;;;;8.52;5.70;;;;;;;;;;5115257;27;20092;-72
2023/08/14 14:34:56;;;;;;;8.05;5.30;;;;;;;;;;5116255;27;20455;-73
2023/08/14 14:37:23;;;;;;;5.75;5.18;;;;;;;;;;5115962;27;20039;-73
2023/08/14 14:39:49;;;;;;;7.95;5.32;;;;;;;;;;5134284;27;20046;-73